GTI9120 PWAK-PHNL
Flight info
| Callsign | GTI9120 |
|---|---|
| Flight time | N/A |
| Altitude | 33000 |
| Route | NATIE A450 RESEE/N0483F350 A450 KATHS OPACA4 |
| Aircraft | B77L/H-SDE1E2E3FGHIJ2J3J4J5M1RWXY/LB1D1 |
Departure
| Time | N/A |
|---|---|
| Airport | Wake Island Airfield (PWAK) |
Arrival
| Time | 2026-05-03 20:53 |
|---|---|
| Airport | Daniel K. Inouye International Airport (PHNL) |
| Time | Latitude | Longitude | Altitude | Speed | Heading |
|---|---|---|---|---|---|
| 2026-05-03 20:15 | 21.10310 | -162.27776 | 34437 ft | 496 kts | 90° |
| 2026-05-03 20:15 | 21.10211 | -162.24092 | 34782 ft | 496 kts | 90° |
| 2026-05-03 20:15 | 21.10111 | -162.20398 | 35053 ft | 497 kts | 90° |
| 2026-05-03 20:16 | 21.09943 | -162.14199 | 35126 ft | 502 kts | 90° |
| 2026-05-03 20:16 | 21.09701 | -162.05502 | 35137 ft | 496 kts | 90° |
| 2026-05-03 20:17 | 21.09528 | -161.99385 | 35145 ft | 494 kts | 90° |
| 2026-05-03 20:17 | 21.09284 | -161.90830 | 35146 ft | 494 kts | 90° |
| 2026-05-03 20:18 | 21.09106 | -161.84656 | 35145 ft | 494 kts | 90° |
| 2026-05-03 20:18 | 21.08890 | -161.77327 | 35143 ft | 495 kts | 90° |
| 2026-05-03 20:19 | 21.08670 | -161.69952 | 35145 ft | 496 kts | 90° |
| 2026-05-03 20:19 | 21.08446 | -161.62544 | 35146 ft | 497 kts | 90° |
| 2026-05-03 20:20 | 21.08219 | -161.55148 | 35145 ft | 498 kts | 90° |
| 2026-05-03 20:20 | 21.07989 | -161.47741 | 35145 ft | 498 kts | 90° |
| 2026-05-03 20:21 | 21.07757 | -161.40373 | 35140 ft | 498 kts | 90° |
| 2026-05-03 20:21 | 21.07511 | -161.32959 | 35139 ft | 498 kts | 90° |
| 2026-05-03 20:22 | 21.07247 | -161.25548 | 35140 ft | 498 kts | 91° |
| 2026-05-03 20:22 | 21.06979 | -161.18135 | 35140 ft | 498 kts | 91° |
| 2026-05-03 20:23 | 21.06711 | -161.10717 | 35142 ft | 498 kts | 91° |
| 2026-05-03 20:23 | 21.06442 | -161.03352 | 35135 ft | 498 kts | 91° |
| 2026-05-03 20:24 | 21.06169 | -160.95950 | 35138 ft | 498 kts | 91° |
| 2026-05-03 20:24 | 21.05893 | -160.88542 | 35139 ft | 498 kts | 91° |
| 2026-05-03 20:25 | 21.05613 | -160.81132 | 35137 ft | 498 kts | 91° |
| 2026-05-03 20:25 | 21.05330 | -160.73725 | 35139 ft | 498 kts | 91° |
| 2026-05-03 20:26 | 21.05044 | -160.66321 | 35138 ft | 498 kts | 91° |
| 2026-05-03 20:26 | 21.04754 | -160.58905 | 35139 ft | 498 kts | 91° |
| 2026-05-03 20:27 | 21.04461 | -160.51490 | 35140 ft | 498 kts | 91° |
| 2026-05-03 20:27 | 21.04165 | -160.44080 | 35138 ft | 498 kts | 91° |
| 2026-05-03 20:28 | 21.03866 | -160.36659 | 35141 ft | 499 kts | 91° |
| 2026-05-03 20:28 | 21.03565 | -160.29294 | 35135 ft | 499 kts | 91° |
| 2026-05-03 20:29 | 21.03259 | -160.21875 | 35141 ft | 499 kts | 91° |
| 2026-05-03 20:29 | 21.02950 | -160.14451 | 35139 ft | 499 kts | 91° |
| 2026-05-03 20:30 | 21.02637 | -160.07022 | 35137 ft | 499 kts | 91° |
| 2026-05-03 20:30 | 21.02321 | -159.99599 | 35137 ft | 499 kts | 91° |
| 2026-05-03 20:31 | 21.02002 | -159.92168 | 35138 ft | 500 kts | 91° |
| 2026-05-03 20:31 | 21.01679 | -159.84736 | 35136 ft | 500 kts | 91° |
| 2026-05-03 20:32 | 21.01357 | -159.77424 | 34802 ft | 489 kts | 91° |
| 2026-05-03 20:32 | 21.01197 | -159.73807 | 34430 ft | 482 kts | 91° |
| 2026-05-03 20:32 | 21.01038 | -159.70239 | 34026 ft | 477 kts | 91° |
| 2026-05-03 20:32 | 21.00880 | -159.66704 | 33521 ft | 473 kts | 91° |
| 2026-05-03 20:33 | 21.00723 | -159.63205 | 33009 ft | 469 kts | 91° |
| 2026-05-03 20:33 | 21.00567 | -159.59726 | 32536 ft | 465 kts | 91° |
| 2026-05-03 20:33 | 21.00411 | -159.56282 | 32050 ft | 462 kts | 91° |
| 2026-05-03 20:33 | 21.00256 | -159.52861 | 31602 ft | 458 kts | 91° |
| 2026-05-03 20:34 | 21.00102 | -159.49476 | 31158 ft | 454 kts | 91° |
| 2026-05-03 20:34 | 20.99950 | -159.46156 | 30737 ft | 450 kts | 91° |
| 2026-05-03 20:34 | 20.99797 | -159.42826 | 30326 ft | 446 kts | 91° |
| 2026-05-03 20:34 | 20.99645 | -159.39574 | 29672 ft | 430 kts | 91° |
| 2026-05-03 20:35 | 20.99497 | -159.36409 | 28611 ft | 423 kts | 91° |
| 2026-05-03 20:35 | 20.99352 | -159.33294 | 27672 ft | 414 kts | 91° |
| 2026-05-03 20:35 | 20.99210 | -159.30288 | 27339 ft | 400 kts | 91° |
| 2026-05-03 20:35 | 20.99072 | -159.27325 | 26909 ft | 399 kts | 91° |
| 2026-05-03 20:36 | 20.98934 | -159.24356 | 26505 ft | 400 kts | 91° |
| 2026-05-03 20:36 | 20.98795 | -159.21362 | 26101 ft | 406 kts | 91° |
| 2026-05-03 20:36 | 20.98652 | -159.18319 | 25673 ft | 412 kts | 92° |
| 2026-05-03 20:36 | 20.98525 | -159.15260 | 25220 ft | 410 kts | 89° |
| 2026-05-03 20:37 | 20.98724 | -159.12278 | 24517 ft | 396 kts | 80° |
| 2026-05-03 20:37 | 20.99272 | -159.09436 | 23561 ft | 392 kts | 74° |
| 2026-05-03 20:37 | 21.00124 | -159.06637 | 22358 ft | 390 kts | 70° |
| 2026-05-03 20:37 | 21.01045 | -159.03918 | 21244 ft | 388 kts | 69° |
| 2026-05-03 20:38 | 21.01957 | -159.01256 | 20217 ft | 385 kts | 70° |
| 2026-05-03 20:38 | 21.02874 | -158.98580 | 19249 ft | 381 kts | 70° |
| 2026-05-03 20:38 | 21.03776 | -158.95932 | 18267 ft | 377 kts | 70° |
| 2026-05-03 20:38 | 21.04667 | -158.93302 | 17252 ft | 372 kts | 70° |
| 2026-05-03 20:39 | 21.05534 | -158.90730 | 16383 ft | 364 kts | 70° |
| 2026-05-03 20:39 | 21.06384 | -158.88199 | 15447 ft | 358 kts | 70° |
| 2026-05-03 20:39 | 21.07219 | -158.85710 | 14571 ft | 352 kts | 70° |
| 2026-05-03 20:39 | 21.08037 | -158.83266 | 13686 ft | 346 kts | 70° |
| 2026-05-03 20:40 | 21.08840 | -158.80866 | 13067 ft | 340 kts | 70° |
| 2026-05-03 20:40 | 21.09638 | -158.78478 | 12696 ft | 342 kts | 70° |
| 2026-05-03 20:40 | 21.10443 | -158.76069 | 12320 ft | 345 kts | 70° |
| 2026-05-03 20:40 | 21.11252 | -158.73644 | 11931 ft | 347 kts | 70° |
| 2026-05-03 20:41 | 21.12068 | -158.71200 | 11549 ft | 349 kts | 70° |
| 2026-05-03 20:41 | 21.12889 | -158.68740 | 11156 ft | 352 kts | 70° |
| 2026-05-03 20:41 | 21.13714 | -158.66265 | 10761 ft | 354 kts | 70° |
| 2026-05-03 20:41 | 21.14531 | -158.63812 | 10497 ft | 338 kts | 70° |
| 2026-05-03 20:42 | 21.15289 | -158.61535 | 10258 ft | 312 kts | 70° |
| 2026-05-03 20:42 | 21.15990 | -158.59429 | 9938 ft | 289 kts | 70° |
| 2026-05-03 20:42 | 21.16646 | -158.57455 | 9430 ft | 274 kts | 70° |
| 2026-05-03 20:42 | 21.17277 | -158.55558 | 8788 ft | 267 kts | 70° |
| 2026-05-03 20:43 | 21.17898 | -158.53694 | 8054 ft | 264 kts | 70° |
| 2026-05-03 20:43 | 21.18509 | -158.51857 | 7425 ft | 258 kts | 70° |
| 2026-05-03 20:43 | 21.19102 | -158.50072 | 6713 ft | 257 kts | 71° |
| 2026-05-03 20:43 | 21.19701 | -158.48269 | 6030 ft | 252 kts | 71° |
| 2026-05-03 20:44 | 21.20285 | -158.46508 | 5490 ft | 255 kts | 71° |
| 2026-05-03 20:44 | 21.20878 | -158.44722 | 5122 ft | 254 kts | 71° |
| 2026-05-03 20:44 | 21.21465 | -158.42952 | 4770 ft | 252 kts | 71° |
| 2026-05-03 20:44 | 21.22048 | -158.41192 | 4437 ft | 249 kts | 71° |
| 2026-05-03 20:45 | 21.22622 | -158.39462 | 4137 ft | 244 kts | 71° |
| 2026-05-03 20:45 | 21.23186 | -158.37757 | 3775 ft | 242 kts | 70° |
| 2026-05-03 20:45 | 21.23745 | -158.36071 | 3426 ft | 240 kts | 70° |
| 2026-05-03 20:45 | 21.24359 | -158.34459 | 3358 ft | 227 kts | 66° |
| 2026-05-03 20:46 | 21.25021 | -158.32903 | 3361 ft | 234 kts | 65° |
| 2026-05-03 20:46 | 21.25722 | -158.31280 | 3380 ft | 244 kts | 65° |
| 2026-05-03 20:46 | 21.26442 | -158.29621 | 3374 ft | 245 kts | 65° |
| 2026-05-03 20:46 | 21.27155 | -158.27997 | 3369 ft | 242 kts | 65° |
| 2026-05-03 20:47 | 21.27871 | -158.26376 | 3374 ft | 240 kts | 65° |
| 2026-05-03 20:47 | 21.28586 | -158.24764 | 3373 ft | 239 kts | 65° |
| 2026-05-03 20:47 | 21.29300 | -158.23150 | 3371 ft | 240 kts | 65° |
| 2026-05-03 20:47 | 21.30012 | -158.21535 | 3366 ft | 240 kts | 65° |
| 2026-05-03 20:48 | 21.30714 | -158.19942 | 3352 ft | 230 kts | 65° |
| 2026-05-03 20:48 | 21.31371 | -158.18450 | 3331 ft | 213 kts | 65° |
| 2026-05-03 20:48 | 21.31981 | -158.17075 | 3267 ft | 195 kts | 65° |
| 2026-05-03 20:48 | 21.32340 | -158.15727 | 3239 ft | 187 kts | 84° |
| 2026-05-03 20:49 | 21.32453 | -158.14310 | 3274 ft | 193 kts | 85° |
| 2026-05-03 20:49 | 21.32507 | -158.12871 | 3277 ft | 192 kts | 88° |
| 2026-05-03 20:49 | 21.32521 | -158.11419 | 3061 ft | 197 kts | 88° |
| 2026-05-03 20:49 | 21.32523 | -158.09949 | 2826 ft | 197 kts | 88° |
| 2026-05-03 20:50 | 21.32522 | -158.08514 | 2564 ft | 188 kts | 88° |
| 2026-05-03 20:50 | 21.32523 | -158.07157 | 2370 ft | 181 kts | 88° |
| 2026-05-03 20:50 | 21.32523 | -158.05823 | 2111 ft | 176 kts | 87° |
| 2026-05-03 20:50 | 21.32524 | -158.04522 | 1879 ft | 174 kts | 88° |
| 2026-05-03 20:51 | 21.32521 | -158.03263 | 1681 ft | 163 kts | 87° |
| 2026-05-03 20:51 | 21.32523 | -158.02092 | 1458 ft | 149 kts | 87° |
| 2026-05-03 20:51 | 21.32518 | -158.01045 | 1207 ft | 133 kts | 86° |
| 2026-05-03 20:51 | 21.32509 | -158.00073 | 1078 ft | 132 kts | 86° |
| 2026-05-03 20:52 | 21.32522 | -157.99042 | 1014 ft | 145 kts | 83° |
| 2026-05-03 20:52 | 21.32534 | -157.97940 | 772 ft | 147 kts | 87° |
| 2026-05-03 20:52 | 21.32527 | -157.96854 | 532 ft | 148 kts | 86° |
| 2026-05-03 20:52 | 21.32529 | -157.95810 | 297 ft | 131 kts | 85° |
| 2026-05-03 20:53 | 21.32529 | -157.94835 | 160 ft | 142 kts | 86° |
| 2026-05-03 20:53 | 21.32529 | -157.93775 | 33 ft | 135 kts | 88° |
| 2026-05-03 20:53 | 21.32522 | -157.92865 | 23 ft | 106 kts | 90° |
| 2026-05-03 20:53 | 21.32525 | -157.92365 | 28 ft | 27 kts | 87° |
| 2026-05-03 20:54 | 21.32577 | -157.92268 | 29 ft | 14 kts | 31° |
| 2026-05-03 20:54 | 21.32695 | -157.92307 | 28 ft | 9 kts | 272° |
| 2026-05-03 20:54 | 21.32695 | -157.92375 | 24 ft | 10 kts | 269° |
| 2026-05-03 20:55 | 21.32695 | -157.92454 | 24 ft | 13 kts | 269° |
| 2026-05-03 20:55 | 21.32694 | -157.92587 | 24 ft | 23 kts | 270° |
| 2026-05-03 20:55 | 21.32720 | -157.92774 | 28 ft | 25 kts | 291° |
| 2026-05-03 20:55 | 21.32743 | -157.92931 | 22 ft | 18 kts | 270° |
| 2026-05-03 20:56 | 21.32743 | -157.93069 | 24 ft | 18 kts | 270° |
| 2026-05-03 20:56 | 21.32745 | -157.93205 | 24 ft | 18 kts | 271° |
| 2026-05-03 20:56 | 21.32743 | -157.93343 | 23 ft | 18 kts | 270° |
| 2026-05-03 20:56 | 21.32744 | -157.93480 | 24 ft | 18 kts | 270° |
| 2026-05-03 20:57 | 21.32745 | -157.93610 | 26 ft | 17 kts | 269° |
| 2026-05-03 20:57 | 21.32743 | -157.93737 | 26 ft | 17 kts | 269° |
| 2026-05-03 20:57 | 21.32742 | -157.93864 | 24 ft | 17 kts | 269° |
| 2026-05-03 20:57 | 21.32743 | -157.93980 | 26 ft | 9 kts | 279° |
| 2026-05-03 20:58 | 21.32792 | -157.94016 | 27 ft | 10 kts | 0° |
| 2026-05-03 20:58 | 21.32863 | -157.94015 | 24 ft | 11 kts | 1° |
| 2026-05-03 20:58 | 21.32939 | -157.94013 | 24 ft | 11 kts | 1° |
| 2026-05-03 20:58 | 21.32999 | -157.93999 | 25 ft | 8 kts | 46° |
| 2026-05-03 20:59 | 21.33005 | -157.93950 | 26 ft | 6 kts | 94° |
| 2026-05-03 20:59 | 21.33004 | -157.93941 | 26 ft | 1 kts | 92° |
| 2026-05-03 20:59 | 21.33004 | -157.93939 | 26 ft | 0 kts | 92° |